Time;durP1;ratioP1;P1;durP2;ratioP2;P2;SDS_P1;SDS_P2;PMS_P1;PMS_P2;Temp;Humidity;BMP_temperature;BMP_pressure;BME280_temperature;BME280_humidity;BME280_pressure;Samples;Min_cycle;Max_cycle;Signal;HPM_P1;HPM_P2
2021/09/27 00:00:28;;;;;;;16.87;15.27;;;17.40;99.90;;;;;;4990967;28;20433;-93
2021/09/27 00:02:57;;;;;;;17.90;16.10;;;17.40;99.90;;;;;;4991688;28;20181;-94
2021/09/27 00:05:24;;;;;;;17.30;15.70;;;17.40;99.90;;;;;;4992393;28;20482;-95
2021/09/27 00:07:50;;;;;;;16.20;14.70;;;17.40;99.90;;;;;;4989783;28;20420;-94
2021/09/27 00:10:21;;;;;;;16.23;14.60;;;17.30;99.90;;;;;;4987531;28;20444;-95
2021/09/27 00:12:47;;;;;;;17.60;15.80;;;17.30;99.90;;;;;;4994911;28;20161;-95
2021/09/27 00:15:21;;;;;;;17.37;15.33;;;17.30;99.90;;;;;;4997116;28;20420;-95
2021/09/27 00:17:47;;;;;;;16.30;14.70;;;17.30;99.90;;;;;;4981838;28;20428;-93
2021/09/27 00:20:14;;;;;;;16.50;15.00;;;17.30;99.90;;;;;;4996798;28;20500;-94
2021/09/27 00:22:40;;;;;;;18.57;16.87;;;17.30;99.90;;;;;;4979896;28;20280;-95
2021/09/27 00:25:07;;;;;;;18.50;16.50;;;17.30;99.90;;;;;;4978997;28;20958;-94
2021/09/27 00:27:53;;;;;;;18.07;16.17;;;17.40;99.90;;;;;;4994676;28;20430;-94
2021/09/27 00:30:20;;;;;;;17.23;15.47;;;17.30;99.90;;;;;;4995075;28;20433;-93
2021/09/27 00:32:52;;;;;;;15.87;14.27;;;17.30;99.90;;;;;;4995680;28;20436;-96
2021/09/27 00:35:22;;;;;;;17.40;15.80;;;17.30;99.90;;;;;;5009969;28;20423;-95
2021/09/27 00:37:49;;;;;;;16.37;14.97;;;17.20;99.90;;;;;;4991970;28;20426;-95
2021/09/27 00:40:19;;;;;;;17.23;15.50;;;17.20;99.90;;;;;;4992293;28;20418;-95
2021/09/27 00:42:48;;;;;;;14.43;13.13;;;17.20;99.90;;;;;;4993355;28;20424;-95
2021/09/27 00:45:17;;;;;;;16.97;15.43;;;17.20;99.90;;;;;;4992435;28;20421;-95
2021/09/27 00:47:43;;;;;;;14.53;13.10;;;17.20;99.90;;;;;;4982612;28;20421;-95
2021/09/27 00:50:11;;;;;;;18.10;16.43;;;17.20;99.90;;;;;;4985895;28;20426;-94
2021/09/27 00:52:38;;;;;;;17.30;15.80;;;17.30;99.90;;;;;;4988202;28;20616;-95
2021/09/27 00:55:07;;;;;;;19.07;16.50;;;17.30;99.90;;;;;;4982061;28;20425;-93
2021/09/27 00:57:35;;;;;;;17.97;16.33;;;17.30;99.90;;;;;;4981219;28;20462;-94
2021/09/27 01:00:04;;;;;;;17.80;16.00;;;17.30;99.90;;;;;;4984553;28;20459;-95
2021/09/27 01:02:35;;;;;;;18.57;16.87;;;17.20;99.90;;;;;;4993609;28;20424;-95
2021/09/27 01:05:09;;;;;;;17.90;16.17;;;17.30;99.90;;;;;;4979990;28;20491;-96
2021/09/27 01:08:00;;;;;;;16.67;15.07;;;17.20;99.90;;;;;;4981053;28;20460;-95
2021/09/27 01:10:52;;;;;;;15.03;13.63;;;17.20;99.90;;;;;;4981403;28;20416;-95
2021/09/27 01:13:46;;;;;;;16.10;14.70;;;17.10;99.90;;;;;;4982019;28;20465;-95
2021/09/27 01:17:20;;;;;;;15.33;14.00;;;17.20;99.90;;;;;;5014987;28;20459;-95
2021/09/27 01:20:24;;;;;;;16.87;15.37;;;17.10;99.90;;;;;;4994803;28;20418;-95
2021/09/27 01:23:44;;;;;;;16.90;14.90;;;17.20;99.90;;;;;;5013552;28;20440;-93
2021/09/27 01:26:50;;;;;;;17.53;16.13;;;17.20;99.90;;;;;;5001702;28;20438;-94
2021/09/27 01:29:37;;;;;;;15.83;14.33;;;17.20;99.90;;;;;;5001644;28;20467;-93
2021/09/27 01:32:25;;;;;;;17.80;16.03;;;17.10;99.90;;;;;;4994648;28;20443;-95
2021/09/27 01:34:56;;;;;;;20.30;18.37;;;17.20;99.90;;;;;;4992616;28;20434;-95
2021/09/27 01:37:52;;;;;;;19.57;17.57;;;17.30;99.90;;;;;;4994088;28;20643;-95
2021/09/27 01:40:39;;;;;;;18.93;17.03;;;17.30;99.90;;;;;;4990049;28;20504;-95
2021/09/27 01:43:15;;;;;;;16.47;14.87;;;17.30;99.90;;;;;;4990543;28;20464;-95
2021/09/27 01:45:59;;;;;;;17.30;15.60;;;17.20;99.90;;;;;;4989490;28;20437;-93
2021/09/27 01:48:32;;;;;;;18.63;16.90;;;17.20;99.90;;;;;;4985042;28;20566;-96
2021/09/27 01:50:59;;;;;;;16.30;14.80;;;17.20;99.90;;;;;;4987544;28;20458;-95
2021/09/27 01:53:39;;;;;;;19.50;17.50;;;17.20;99.90;;;;;;4990715;28;20410;-94
2021/09/27 01:56:20;;;;;;;18.97;17.20;;;17.20;99.90;;;;;;4983557;28;20434;-94
2021/09/27 01:59:15;;;;;;;22.23;19.93;;;17.30;99.90;;;;;;4984504;28;20427;-95
2021/09/27 02:01:53;;;;;;;20.50;18.60;;;17.30;99.90;;;;;;4986449;28;20418;-95
2021/09/27 02:04:50;;;;;;;24.83;20.93;;;17.20;99.90;;;;;;4982695;28;20916;-95
2021/09/27 02:07:19;;;;;;;23.13;20.33;;;17.20;99.90;;;;;;4969647;28;20539;-96
2021/09/27 02:10:18;;;;;;;22.77;20.57;;;17.10;99.90;;;;;;4971612;28;20482;-95
2021/09/27 02:13:10;;;;;;;24.73;21.43;;;17.10;99.90;;;;;;4969928;28;20805;-95
2021/09/27 02:15:46;;;;;;;23.47;21.07;;;17.10;99.90;;;;;;4960746;28;20503;-95
2021/09/27 02:18:25;;;;;;;25.47;22.83;;;17.10;99.90;;;;;;4953150;28;20426;-94
2021/09/27 02:21:11;;;;;;;26.10;22.83;;;17.10;99.90;;;;;;4966591;28;20422;-95
2021/09/27 02:24:02;;;;;;;24.93;22.43;;;17.10;99.90;;;;;;4967211;28;20415;-94
2021/09/27 02:26:28;;;;;;;23.83;21.50;;;17.10;99.90;;;;;;4965168;28;20427;-94
2021/09/27 02:28:54;;;;;;;25.10;22.53;;;17.20;99.90;;;;;;4962953;28;20481;-95
2021/09/27 02:31:31;;;;;;;22.60;20.30;;;17.20;99.90;;;;;;4963632;28;20426;-94
2021/09/27 02:34:17;;;;;;;23.60;21.27;;;17.20;99.90;;;;;;4964253;28;20435;-95
2021/09/27 02:36:50;;;;;;;24.27;21.67;;;17.20;99.90;;;;;;4963429;28;20419;-95
2021/09/27 02:39:42;;;;;;;22.40;20.20;;;17.20;99.90;;;;;;4962507;28;20426;-95
2021/09/27 02:42:37;;;;;;;22.90;20.50;;;17.20;99.90;;;;;;4963724;28;20430;-94
2021/09/27 02:45:05;;;;;;;21.87;19.77;;;17.20;99.90;;;;;;4964819;28;20486;-95
2021/09/27 02:47:42;;;;;;;22.27;20.17;;;17.20;99.90;;;;;;4963299;28;20422;-95
2021/09/27 02:50:10;;;;;;;25.50;22.43;;;17.30;99.90;;;;;;4968787;28;20425;-95
2021/09/27 02:52:37;;;;;;;23.90;21.30;;;17.30;99.90;;;;;;4963550;28;20479;-94
2021/09/27 02:55:14;;;;;;;21.33;19.33;;;17.20;99.90;;;;;;4965468;28;20465;-94
2021/09/27 02:58:01;;;;;;;20.97;18.77;;;17.20;99.90;;;;;;4962908;28;20422;-93
2021/09/27 03:00:37;;;;;;;21.50;19.40;;;17.20;99.90;;;;;;4963848;28;20428;-93
2021/09/27 03:03:32;;;;;;;20.37;18.37;;;17.20;99.90;;;;;;4964220;28;20430;-93
2021/09/27 03:06:23;;;;;;;21.70;19.57;;;17.10;99.90;;;;;;4962600;28;20483;-93
2021/09/27 03:09:01;;;;;;;20.20;18.20;;;17.10;99.90;;;;;;4963724;28;20519;-94
2021/09/27 03:11:58;;;;;;;21.77;19.53;;;17.00;99.90;;;;;;4961852;28;20417;-91
2021/09/27 03:14:46;;;;;;;22.03;19.63;;;17.00;99.90;;;;;;4962367;28;20421;-92
2021/09/27 03:17:29;;;;;;;22.30;19.87;;;17.00;99.90;;;;;;4962160;28;20419;-93
2021/09/27 03:20:09;;;;;;;20.60;18.50;;;17.00;99.90;;;;;;4966548;28;20422;-91
2021/09/27 03:22:48;;;;;;;21.90;19.77;;;17.00;99.90;;;;;;4969379;28;20426;-92
2021/09/27 03:25:51;;;;;;;23.77;21.37;;;17.00;99.90;;;;;;4970718;28;20435;-92
2021/09/27 03:28:46;;;;;;;23.30;18.17;;;17.00;99.90;;;;;;4969496;28;20474;-93
2021/09/27 03:31:28;;;;;;;21.83;18.17;;;17.00;99.90;;;;;;4941902;28;20437;-91
2021/09/27 03:34:31;;;;;;;21.80;18.90;;;17.00;99.90;;;;;;4971798;28;20424;-92
2021/09/27 03:37:01;;;;;;;21.47;18.80;;;17.00;99.90;;;;;;4967493;28;20454;-92
2021/09/27 03:39:52;;;;;;;22.23;18.87;;;17.00;99.90;;;;;;4978047;28;20462;-92
2021/09/27 03:42:31;;;;;;;24.03;18.27;;;17.00;99.90;;;;;;4962762;28;20451;-93
2021/09/27 03:45:04;;;;;;;25.83;19.07;;;17.00;99.90;;;;;;4969805;28;20414;-93
2021/09/27 03:47:38;;;;;;;24.57;20.43;;;17.00;99.90;;;;;;4965546;28;20426;-94
2021/09/27 03:50:08;;;;;;;22.60;18.33;;;17.00;99.90;;;;;;4963492;28;20480;-94
2021/09/27 03:52:37;;;;;;;21.33;19.13;;;16.90;99.90;;;;;;4962160;28;20462;-94
2021/09/27 03:55:11;;;;;;;23.97;19.80;;;17.00;99.90;;;;;;4963677;28;20522;-93
2021/09/27 03:57:49;;;;;;;21.73;18.80;;;17.00;99.90;;;;;;4963567;28;20451;-94
2021/09/27 04:00:26;;;;;;;20.20;17.60;;;17.00;99.90;;;;;;4964411;28;20942;-95
2021/09/27 04:03:02;;;;;;;19.50;17.50;;;16.90;99.90;;;;;;4982253;28;20443;-93
2021/09/27 04:05:48;;;;;;;21.07;16.93;;;17.00;99.90;;;;;;4972202;28;20542;-93
2021/09/27 04:08:32;;;;;;;19.77;17.67;;;16.90;99.90;;;;;;4986283;28;20484;-94
2021/09/27 04:11:03;;;;;;;21.23;18.67;;;17.00;99.90;;;;;;4982259;28;20441;-91
2021/09/27 04:13:44;;;;;;;21.60;19.00;;;16.90;99.90;;;;;;4981737;28;20507;-92
2021/09/27 04:16:17;;;;;;;24.40;20.03;;;16.90;99.90;;;;;;4982513;28;20425;-93
2021/09/27 04:19:08;;;;;;;21.03;18.87;;;16.90;99.90;;;;;;4984637;28;20429;-93
2021/09/27 04:21:58;;;;;;;23.37;20.17;;;16.90;99.90;;;;;;4982701;28;20433;-93
2021/09/27 04:24:45;;;;;;;22.60;17.43;;;17.00;99.90;;;;;;4982936;28;20426;-93
2021/09/27 04:27:42;;;;;;;21.70;16.77;;;17.00;99.90;;;;;;4981674;28;20418;-93
2021/09/27 04:30:13;;;;;;;19.90;17.80;;;17.00;99.90;;;;;;5001222;28;20435;-91
2021/09/27 04:33:04;;;;;;;20.43;18.30;;;16.90;99.90;;;;;;4998722;28;20430;-92
2021/09/27 04:35:37;;;;;;;23.53;17.67;;;16.90;99.90;;;;;;4981013;28;20422;-92
2021/09/27 04:38:08;;;;;;;22.27;19.67;;;16.90;99.90;;;;;;4981127;28;20411;-92
2021/09/27 04:41:14;;;;;;;19.80;17.80;;;16.90;99.90;;;;;;4980666;28;20412;-92
2021/09/27 04:44:13;;;;;;;19.60;17.50;;;17.00;99.90;;;;;;4979651;28;20426;-91
2021/09/27 04:46:52;;;;;;;19.03;17.00;;;16.90;99.90;;;;;;4982159;28;20996;-92
2021/09/27 04:49:55;;;;;;;22.07;19.50;;;16.90;99.90;;;;;;4982878;28;20475;-92
2021/09/27 04:52:42;;;;;;;19.17;17.10;;;16.90;99.90;;;;;;4982480;28;20418;-94
2021/09/27 04:55:35;;;;;;;19.20;16.70;;;16.90;99.90;;;;;;4982856;28;20501;-93
2021/09/27 04:58:35;;;;;;;19.30;17.10;;;16.90;99.90;;;;;;4981262;28;20418;-93
2021/09/27 05:01:23;;;;;;;18.73;16.80;;;16.90;99.90;;;;;;4982368;28;20512;-93
2021/09/27 05:04:38;;;;;;;18.87;16.87;;;16.90;99.90;;;;;;4988525;28;20479;-93
2021/09/27 05:07:25;;;;;;;19.73;17.60;;;16.90;99.90;;;;;;4954207;28;20433;-94
2021/09/27 05:10:12;;;;;;;19.40;17.40;;;16.90;99.90;;;;;;4961748;28;20474;-92
2021/09/27 05:13:04;;;;;;;22.83;20.13;;;16.90;99.90;;;;;;4961698;28;20426;-94
2021/09/27 05:15:53;;;;;;;23.60;18.73;;;16.90;99.90;;;;;;4965395;28;20510;-92
2021/09/27 05:18:37;;;;;;;18.00;16.20;;;16.90;99.90;;;;;;4963950;28;20513;-94
2021/09/27 05:21:22;;;;;;;20.07;17.97;;;16.90;99.90;;;;;;4969157;28;20433;-93
2021/09/27 05:23:50;;;;;;;19.90;16.60;;;16.90;99.90;;;;;;4969215;28;20571;-93
2021/09/27 05:26:33;;;;;;;23.23;19.27;;;16.90;99.90;;;;;;4980206;28;20427;-94
2021/09/27 05:29:24;;;;;;;20.77;18.53;;;16.90;99.90;;;;;;4965430;28;20459;-94
2021/09/27 05:32:22;;;;;;;20.67;17.53;;;16.80;99.90;;;;;;4968068;28;20734;-93
2021/09/27 05:35:05;;;;;;;19.13;16.70;;;16.80;99.90;;;;;;4963821;28;20510;-93
2021/09/27 05:38:00;;;;;;;18.77;16.80;;;16.90;99.90;;;;;;4964335;28;20429;-94
2021/09/27 05:41:00;;;;;;;21.43;18.77;;;16.90;99.90;;;;;;4937860;28;20489;-93
2021/09/27 05:44:06;;;;;;;19.90;18.00;;;16.90;99.90;;;;;;4968279;28;20510;-94
2021/09/27 05:46:35;;;;;;;20.70;18.70;;;17.00;99.90;;;;;;4961260;28;20448;-91
2021/09/27 05:49:24;;;;;;;20.47;16.77;;;16.90;99.90;;;;;;4981408;28;20570;-93
2021/09/27 05:52:21;;;;;;;20.30;18.07;;;16.90;99.90;;;;;;4980221;28;20493;-91
2021/09/27 05:55:22;;;;;;;23.07;18.50;;;17.00;99.90;;;;;;4960126;28;20466;-92
2021/09/27 05:57:48;;;;;;;20.97;18.17;;;16.90;99.90;;;;;;4959018;28;20430;-89
2021/09/27 06:00:37;;;;;;;19.17;17.27;;;16.90;99.90;;;;;;4948998;29;20440;-92
2021/09/27 06:03:34;;;;;;;20.40;18.30;;;17.00;99.90;;;;;;4940177;29;20191;-91
2021/09/27 06:06:24;;;;;;;20.80;18.60;;;17.00;99.90;;;;;;4904737;29;20476;-92
2021/09/27 06:09:16;;;;;;;19.27;17.27;;;17.00;99.90;;;;;;4939575;29;20551;-91
2021/09/27 06:11:48;;;;;;;19.60;17.00;;;17.00;99.90;;;;;;4939988;29;20428;-94
2021/09/27 06:14:17;;;;;;;21.33;19.13;;;17.00;99.90;;;;;;4939163;29;20483;-92
2021/09/27 06:17:18;;;;;;;22.63;19.70;;;16.90;99.90;;;;;;4940662;29;20460;-92
2021/09/27 06:19:48;;;;;;;21.47;18.37;;;17.00;99.90;;;;;;4940034;29;20457;-93
2021/09/27 06:22:25;;;;;;;21.97;18.20;;;17.00;99.90;;;;;;4940292;29;20928;-93
2021/09/27 06:25:16;;;;;;;20.30;18.17;;;17.00;99.90;;;;;;4949007;28;20460;-93
2021/09/27 06:27:50;;;;;;;24.27;18.60;;;17.00;99.90;;;;;;4940912;28;20476;-93
2021/09/27 06:31:04;;;;;;;22.90;20.40;;;17.10;99.90;;;;;;4959205;28;20533;-92
2021/09/27 06:33:48;;;;;;;20.03;17.77;;;17.10;99.90;;;;;;4951731;28;20452;-91
2021/09/27 06:36:21;;;;;;;21.07;19.00;;;17.00;99.90;;;;;;4955790;28;20515;-91
2021/09/27 06:38:52;;;;;;;21.70;19.40;;;17.10;99.90;;;;;;4972276;28;20518;-92
2021/09/27 06:41:20;;;;;;;21.33;19.00;;;17.10;99.90;;;;;;4957837;28;20423;-92
2021/09/27 06:43:46;;;;;;;23.00;20.70;;;17.00;99.90;;;;;;4958918;28;20426;-92
2021/09/27 06:46:13;;;;;;;23.57;18.93;;;17.00;99.90;;;;;;4962848;28;20436;-91
2021/09/27 06:48:38;;;;;;;21.23;19.20;;;17.00;99.90;;;;;;4958865;29;20474;-93
2021/09/27 06:51:04;;;;;;;22.50;20.07;;;17.00;99.90;;;;;;4977559;28;20907;-92
2021/09/27 06:53:30;;;;;;;22.43;20.13;;;17.10;99.90;;;;;;4961796;28;20188;-94
2021/09/27 06:56:00;;;;;;;22.40;20.00;;;17.10;99.90;;;;;;4962516;28;20456;-92
2021/09/27 06:58:27;;;;;;;22.53;20.03;;;17.00;99.90;;;;;;4962605;28;20422;-92
2021/09/27 07:00:55;;;;;;;22.80;20.53;;;17.10;99.90;;;;;;4962065;28;20451;-93
2021/09/27 07:03:21;;;;;;;22.47;20.23;;;17.00;99.90;;;;;;4957560;28;20499;-90
2021/09/27 07:05:47;;;;;;;25.00;21.13;;;17.00;99.90;;;;;;4958701;28;20581;-92
2021/09/27 07:08:13;;;;;;;23.00;20.70;;;17.10;99.90;;;;;;4958830;28;20480;-87
2021/09/27 07:10:40;;;;;;;23.50;21.03;;;17.10;99.90;;;;;;4975703;28;20708;-93
2021/09/27 07:13:06;;;;;;;24.63;21.37;;;17.10;99.90;;;;;;4947304;28;20428;-89
2021/09/27 07:15:31;;;;;;;23.73;21.23;;;17.10;99.90;;;;;;4967435;28;20431;-92
2021/09/27 07:17:57;;;;;;;23.37;19.97;;;17.10;99.90;;;;;;4948218;29;20473;-91
2021/09/27 07:20:26;;;;;;;23.90;21.33;;;17.10;99.90;;;;;;4943308;29;20256;-92
2021/09/27 07:22:53;;;;;;;25.27;21.10;;;17.20;99.90;;;;;;4944076;29;20186;-94
2021/09/27 07:25:20;;;;;;;23.57;20.13;;;17.20;99.90;;;;;;4949014;29;20529;-94
2021/09/27 07:27:47;;;;;;;25.00;21.07;;;17.20;99.90;;;;;;4946306;29;20855;-93
2021/09/27 07:30:14;;;;;;;21.90;19.60;;;17.20;99.90;;;;;;4946432;29;20460;-93
2021/09/27 07:32:41;;;;;;;23.93;21.50;;;17.20;99.90;;;;;;4946086;29;20783;-94
2021/09/27 07:35:09;;;;;;;24.73;22.13;;;17.20;99.90;;;;;;4948933;29;20428;-93
2021/09/27 07:37:38;;;;;;;25.90;21.60;;;17.30;99.90;;;;;;4946643;29;20500;-93
2021/09/27 07:40:09;;;;;;;23.87;19.97;;;17.20;99.90;;;;;;4950820;29;20432;-93
2021/09/27 07:42:38;;;;;;;22.03;19.77;;;17.30;99.90;;;;;;4937633;29;20461;-93
2021/09/27 07:45:12;;;;;;;24.27;20.33;;;17.20;99.90;;;;;;4953167;29;20432;-93
2021/09/27 07:47:41;;;;;;;24.73;21.93;;;17.30;99.90;;;;;;4954248;29;20451;-93
2021/09/27 07:50:10;;;;;;;25.77;23.17;;;17.20;99.90;;;;;;4948871;29;20484;-94
2021/09/27 07:52:36;;;;;;;26.90;22.80;;;17.30;99.90;;;;;;4964565;29;20430;-93
2021/09/27 07:55:05;;;;;;;26.10;23.40;;;17.40;99.90;;;;;;4948498;29;20438;-95
2021/09/27 07:57:33;;;;;;;25.63;21.80;;;17.40;99.90;;;;;;4946793;29;20428;-93
2021/09/27 08:00:02;;;;;;;26.30;23.60;;;17.30;99.90;;;;;;4947950;29;20418;-94
2021/09/27 08:02:32;;;;;;;26.50;23.33;;;17.40;99.90;;;;;;4946840;29;20461;-95
2021/09/27 08:04:58;;;;;;;26.90;24.07;;;17.40;99.90;;;;;;4952357;28;20457;-92
2021/09/27 08:07:30;;;;;;;29.17;25.10;;;17.50;99.90;;;;;;4982710;28;20425;-92
2021/09/27 08:09:56;;;;;;;26.10;23.30;;;17.50;99.90;;;;;;4983369;28;20234;-94
2021/09/27 08:12:36;;;;;;;24.70;22.07;;;17.40;99.90;;;;;;4999220;28;20496;-93
2021/09/27 08:15:07;;;;;;;25.03;22.60;;;17.50;99.90;;;;;;4994004;28;20418;-96
2021/09/27 08:17:33;;;;;;;27.43;24.43;;;17.50;99.90;;;;;;4966187;28;20905;-89
2021/09/27 08:20:00;;;;;;;25.67;22.90;;;17.50;99.90;;;;;;4978221;28;20467;-90
2021/09/27 08:22:26;;;;;;;25.90;23.10;;;17.50;99.90;;;;;;4959949;28;20205;-91
2021/09/27 08:24:52;;;;;;;25.53;22.83;;;17.50;99.90;;;;;;4960514;28;20452;-90
2021/09/27 08:27:19;;;;;;;24.03;21.63;;;17.60;99.90;;;;;;4959153;28;20502;-92
2021/09/27 08:29:45;;;;;;;26.97;24.07;;;17.50;99.90;;;;;;4960511;28;20301;-90
2021/09/27 08:32:11;;;;;;;25.97;22.67;;;17.40;99.90;;;;;;4959874;28;20456;-90
2021/09/27 08:34:37;;;;;;;27.13;24.43;;;17.50;99.90;;;;;;4959732;28;20230;-90
2021/09/27 08:37:07;;;;;;;26.33;22.20;;;17.50;99.90;;;;;;4959014;28;20182;-89
2021/09/27 08:39:33;;;;;;;26.23;23.53;;;17.50;99.90;;;;;;4976707;28;20407;-90
2021/09/27 08:42:07;;;;;;;23.87;21.10;;;17.60;99.90;;;;;;4958772;28;20522;-89
2021/09/27 08:44:54;;;;;;;30.10;23.30;;;17.60;99.90;;;;;;4958453;28;20185;-88
2021/09/27 08:47:53;;;;;;;24.37;21.60;;;17.70;99.90;;;;;;4959200;28;20419;-89
2021/09/27 08:50:36;;;;;;;23.77;21.00;;;17.80;99.90;;;;;;4959241;28;20444;-92
2021/09/27 08:53:26;;;;;;;24.57;22.17;;;17.90;99.90;;;;;;4960020;28;20426;-91
2021/09/27 08:55:59;;;;;;;25.83;22.70;;;17.90;99.90;;;;;;4976784;28;20913;-90
2021/09/27 08:58:57;;;;;;;26.33;23.70;;;17.90;99.90;;;;;;4959549;28;20425;-92
2021/09/27 09:01:40;;;;;;;26.93;24.17;;;17.80;99.90;;;;;;4942963;28;20514;-89
2021/09/27 09:04:17;;;;;;;25.10;22.50;;;18.00;99.90;;;;;;4975649;28;20419;-90
2021/09/27 09:06:49;;;;;;;26.17;23.47;;;18.00;99.90;;;;;;4958239;28;20566;-88
2021/09/27 09:09:18;;;;;;;26.47;23.67;;;18.20;99.90;;;;;;4975797;28;20526;-86
2021/09/27 09:12:01;;;;;;;26.03;23.10;;;18.30;99.90;;;;;;4958311;28;20454;-86
2021/09/27 09:14:39;;;;;;;23.67;21.27;;;18.40;99.90;;;;;;4958248;28;20422;-86
2021/09/27 09:17:20;;;;;;;27.00;22.17;;;18.40;99.90;;;;;;4958113;28;20421;-85
2021/09/27 09:19:47;;;;;;;24.73;21.67;;;18.40;99.90;;;;;;4958407;28;20435;-86
2021/09/27 09:22:28;;;;;;;24.70;22.30;;;18.30;99.90;;;;;;4974961;28;20508;-82
2021/09/27 09:24:55;;;;;;;24.80;20.57;;;18.30;99.90;;;;;;4980182;28;20427;-84
2021/09/27 09:27:21;;;;;;;26.03;23.10;;;18.40;99.90;;;;;;4965620;28;20495;-84
2021/09/27 09:29:47;;;;;;;23.73;21.27;;;18.50;99.90;;;;;;4981745;28;20872;-85
2021/09/27 09:32:23;;;;;;;26.10;23.00;;;18.70;99.90;;;;;;4977948;28;20650;-83
2021/09/27 09:34:53;;;;;;;25.27;21.20;;;19.00;99.90;;;;;;4976122;28;20520;-85
2021/09/27 09:37:51;;;;;;;22.90;20.63;;;19.40;99.90;;;;;;4992762;28;20418;-84
2021/09/27 09:40:27;;;;;;;22.83;20.43;;;19.40;99.90;;;;;;4988478;28;20423;-86
2021/09/27 09:43:06;;;;;;;23.57;19.87;;;19.90;99.90;;;;;;4988335;28;20934;-86
2021/09/27 09:45:35;;;;;;;21.90;19.63;;;20.10;99.90;;;;;;4972139;28;20434;-84
2021/09/27 09:48:21;;;;;;;22.43;19.97;;;20.60;99.90;;;;;;4992037;28;20473;-84
2021/09/27 09:50:50;;;;;;;22.60;20.17;;;20.70;99.90;;;;;;4973528;28;20440;-85
2021/09/27 09:53:34;;;;;;;21.33;17.37;;;20.70;99.90;;;;;;4992402;28;20463;-85
2021/09/27 09:56:15;;;;;;;21.13;18.07;;;20.20;99.90;;;;;;4974470;28;20445;-83
2021/09/27 09:58:43;;;;;;;21.63;19.10;;;19.90;99.90;;;;;;4991833;28;20913;-82
2021/09/27 10:01:21;;;;;;;19.93;17.97;;;20.40;99.90;;;;;;4975529;28;20442;-87
2021/09/27 10:04:10;;;;;;;22.70;20.30;;;20.60;99.90;;;;;;4994644;28;20414;-83
2021/09/27 10:06:42;;;;;;;24.63;19.60;;;20.80;99.90;;;;;;4993357;28;21035;-83
2021/09/27 10:09:25;;;;;;;21.73;19.50;;;21.20;99.90;;;;;;4993747;28;20471;-82
2021/09/27 10:11:54;;;;;;;23.00;20.27;;;21.10;99.90;;;;;;4997152;28;20410;-82
2021/09/27 10:14:42;;;;;;;21.67;18.30;;;21.10;99.90;;;;;;4996975;28;20450;-82
2021/09/27 10:17:07;;;;;;;22.90;20.50;;;21.20;99.90;;;;;;4996861;28;20416;-81
2021/09/27 10:19:39;;;;;;;23.17;19.03;;;21.10;99.90;;;;;;4993530;28;20494;-86
2021/09/27 10:22:12;;;;;;;23.00;20.63;;;21.30;99.90;;;;;;4985354;28;20178;-84
2021/09/27 10:24:41;;;;;;;20.87;18.80;;;21.50;99.90;;;;;;4994771;28;20439;-88
2021/09/27 10:27:34;;;;;;;21.23;18.80;;;21.50;99.90;;;;;;4997788;28;20519;-85
2021/09/27 10:30:07;;;;;;;21.53;19.37;;;22.30;99.90;;;;;;4975020;28;20484;-84
2021/09/27 10:33:02;;;;;;;19.40;17.33;;;22.60;99.90;;;;;;4977332;28;20410;-86
2021/09/27 10:35:40;;;;;;;20.07;17.20;;;22.40;99.90;;;;;;4957330;28;20434;-86
2021/09/27 10:38:12;;;;;;;19.50;17.40;;;21.90;99.90;;;;;;4977201;28;20418;-86
2021/09/27 10:40:40;;;;;;;20.77;18.70;;;21.80;99.90;;;;;;4977354;28;20452;-86
2021/09/27 10:43:15;;;;;;;20.60;18.53;;;21.60;99.90;;;;;;4976730;28;20479;-83
2021/09/27 10:45:46;;;;;;;21.67;19.60;;;21.30;99.90;;;;;;4959665;28;20413;-84
2021/09/27 10:48:12;;;;;;;22.23;19.83;;;20.80;99.90;;;;;;4976665;28;20581;-85
2021/09/27 10:50:43;;;;;;;22.77;20.47;;;20.80;99.90;;;;;;4976574;28;20509;-82
2021/09/27 10:53:24;;;;;;;23.00;20.60;;;20.90;99.90;;;;;;4976945;28;20702;-82
2021/09/27 10:56:14;;;;;;;24.00;20.37;;;21.00;99.90;;;;;;4976823;28;20421;-82
2021/09/27 10:58:50;;;;;;;21.93;19.60;;;21.20;99.90;;;;;;4959257;28;20468;-83
2021/09/27 11:01:39;;;;;;;21.80;18.50;;;21.70;99.90;;;;;;4976752;28;20467;-84
2021/09/27 11:04:12;;;;;;;21.80;19.50;;;22.70;99.90;;;;;;4957283;28;20824;-85
2021/09/27 11:06:44;;;;;;;19.37;17.30;;;23.20;99.90;;;;;;4978283;28;20481;-86
2021/09/27 11:09:18;;;;;;;19.73;17.80;;;23.20;99.90;;;;;;4995920;28;20470;-86
2021/09/27 11:12:06;;;;;;;18.50;16.33;;;22.80;99.90;;;;;;4977972;28;20457;-86
2021/09/27 11:15:09;;;;;;;19.40;17.33;;;23.30;99.90;;;;;;4995888;28;20419;-86
2021/09/27 11:17:59;;;;;;;20.00;17.90;;;23.20;99.90;;;;;;4978509;28;20465;-85
2021/09/27 11:20:30;;;;;;;17.10;15.50;;;24.00;99.90;;;;;;4995359;28;20419;-85
2021/09/27 11:22:56;;;;;;;17.07;15.57;;;23.50;99.90;;;;;;4996399;28;20469;-85
2021/09/27 11:25:21;;;;;;;15.83;14.43;;;23.30;99.90;;;;;;4996148;28;20481;-85
2021/09/27 11:28:15;;;;;;;19.43;17.60;;;23.80;99.90;;;;;;4995359;28;20204;-82
2021/09/27 11:30:58;;;;;;;16.40;14.80;;;23.80;99.90;;;;;;4978286;28;20184;-86
2021/09/27 11:33:26;;;;;;;17.97;16.27;;;23.50;99.90;;;;;;4995796;28;20424;-84
2021/09/27 11:35:56;;;;;;;17.67;16.27;;;23.10;99.90;;;;;;4995761;28;20768;-85
2021/09/27 11:38:38;;;;;;;15.57;14.00;;;23.70;99.90;;;;;;4978044;28;20516;-83
2021/09/27 11:41:10;;;;;;;15.87;14.40;;;24.60;99.90;;;;;;4995354;28;20523;-86
2021/09/27 11:43:44;;;;;;;16.17;14.77;;;23.70;99.90;;;;;;4977874;28;20429;-86
2021/09/27 11:46:30;;;;;;;15.73;14.23;;;24.40;99.90;;;;;;4978495;28;20773;-89
2021/09/27 11:52:08;;;;;;;17.57;15.90;;;24.40;99.90;;;;;;4995144;28;20766;-88
2021/09/27 11:54:51;;;;;;;15.03;13.53;;;25.30;99.90;;;;;;4977901;28;20423;-87
2021/09/27 11:57:48;;;;;;;16.50;15.00;;;24.80;99.90;;;;;;4977563;28;20774;-88
2021/09/27 12:00:24;;;;;;;15.10;13.70;;;23.30;99.90;;;;;;4995335;28;20422;-87
2021/09/27 12:02:57;;;;;;;15.50;14.00;;;23.00;99.90;;;;;;4977879;28;20981;-86
2021/09/27 12:05:33;;;;;;;15.70;14.43;;;22.90;99.90;;;;;;4994983;28;20493;-87
2021/09/27 12:08:17;;;;;;;17.70;16.23;;;22.40;99.90;;;;;;4995140;28;20406;-85
2021/09/27 12:10:48;;;;;;;17.40;16.00;;;22.60;99.90;;;;;;4993731;28;20783;-84
2021/09/27 12:13:48;;;;;;;16.70;15.00;;;22.70;99.90;;;;;;4988546;28;20428;-87
2021/09/27 12:16:18;;;;;;;16.60;15.10;;;22.70;99.90;;;;;;4992717;28;20462;-85
2021/09/27 12:18:51;;;;;;;17.20;14.43;;;22.40;99.90;;;;;;4976864;28;20513;-86
2021/09/27 12:21:43;;;;;;;15.43;14.03;;;22.80;99.90;;;;;;4994782;28;20426;-84
2021/09/27 12:24:12;;;;;;;15.40;13.93;;;22.90;99.90;;;;;;4995674;28;20410;-86
2021/09/27 12:27:05;;;;;;;16.57;15.17;;;23.40;99.90;;;;;;4977563;28;20465;-86
2021/09/27 12:29:31;;;;;;;17.30;15.50;;;22.40;99.90;;;;;;4981506;28;20483;-84
2021/09/27 12:31:56;;;;;;;17.83;16.10;;;22.20;99.90;;;;;;4994257;28;20576;-85
2021/09/27 12:34:33;;;;;;;16.80;15.00;;;22.30;99.90;;;;;;4977191;28;20181;-86
2021/09/27 12:37:00;;;;;;;16.33;14.77;;;22.50;99.90;;;;;;4994163;28;20313;-86
2021/09/27 12:39:30;;;;;;;16.87;15.30;;;22.30;99.90;;;;;;4994556;28;20765;-86
2021/09/27 12:41:59;;;;;;;15.40;14.03;;;22.10;99.90;;;;;;4994384;28;20475;-86
2021/09/27 12:44:38;;;;;;;15.60;14.20;;;22.00;99.90;;;;;;4994784;28;20421;-86
2021/09/27 12:47:07;;;;;;;14.53;13.33;;;22.10;99.90;;;;;;4995767;28;20437;-85
2021/09/27 12:50:05;;;;;;;13.80;12.50;;;22.10;99.90;;;;;;4994545;28;20498;-84
2021/09/27 12:52:50;;;;;;;14.07;12.67;;;22.40;99.90;;;;;;4971842;28;20422;-83
2021/09/27 12:55:21;;;;;;;14.20;12.93;;;23.30;99.90;;;;;;4977041;28;20836;-86
2021/09/27 12:57:55;;;;;;;12.90;11.80;;;23.00;99.90;;;;;;4994054;28;20497;-85
2021/09/27 13:00:34;;;;;;;13.40;12.20;;;22.90;99.90;;;;;;4971414;28;20443;-85
2021/09/27 13:03:04;;;;;;;14.20;12.90;;;23.20;99.90;;;;;;4989540;28;20438;-86
2021/09/27 13:05:48;;;;;;;13.57;12.17;;;23.20;99.90;;;;;;4991837;28;20557;-85
2021/09/27 13:08:29;;;;;;;13.33;11.97;;;22.80;99.90;;;;;;4995793;28;20520;-84
2021/09/27 13:10:57;;;;;;;13.57;12.10;;;23.00;99.90;;;;;;5012608;28;20414;-84
2021/09/27 13:13:35;;;;;;;12.67;11.50;;;22.80;99.90;;;;;;4994840;28;20534;-85
2021/09/27 13:16:09;;;;;;;12.70;11.60;;;22.50;99.90;;;;;;5012713;28;20479;-84
2021/09/27 13:18:35;;;;;;;13.27;11.67;;;22.20;99.90;;;;;;5013386;28;20422;-83
2021/09/27 13:21:14;;;;;;;15.07;13.07;;;21.80;99.90;;;;;;5014200;28;20496;-82
2021/09/27 13:24:01;;;;;;;13.73;12.53;;;21.60;99.90;;;;;;5004766;28;20501;-85
2021/09/27 13:26:41;;;;;;;13.87;12.63;;;21.60;99.90;;;;;;5013357;28;20448;-83